Time;durP1;ratioP1;P1;durP2;ratioP2;P2;SDS_P1;SDS_P2;PMS_P1;PMS_P2;Temp;Humidity;BMP_temperature;BMP_pressure;BME280_temperature;BME280_humidity;BME280_pressure;Samples;Min_cycle;Max_cycle;Signal;HPM_P1;HPM_P2
2021/12/01 00:01:10;;;;;;;29.33;18.40;;;9.60;99.90;;;;;;5039290;28;20047;-71
2021/12/01 00:03:36;;;;;;;26.70;18.23;;;9.60;99.90;;;;;;5039339;28;20052;-71
2021/12/01 00:06:03;;;;;;;27.40;18.30;;;9.60;99.90;;;;;;5037755;28;20064;-70
2021/12/01 00:08:29;;;;;;;27.27;18.05;;;9.50;99.90;;;;;;5038693;28;20049;-70
2021/12/01 00:10:55;;;;;;;28.40;17.95;;;9.60;99.90;;;;;;5039620;28;20467;-72
2021/12/01 00:13:21;;;;;;;30.48;18.98;;;9.60;99.90;;;;;;5044586;28;20103;-72
2021/12/01 00:15:48;;;;;;;33.13;18.50;;;9.60;99.90;;;;;;5041310;28;20041;-72
2021/12/01 00:18:14;;;;;;;30.05;17.50;;;9.60;99.90;;;;;;5041981;28;20051;-70
2021/12/01 00:20:41;;;;;;;32.28;19.40;;;9.60;99.90;;;;;;5037915;28;20041;-68
2021/12/01 00:23:08;;;;;;;29.08;17.70;;;9.60;99.90;;;;;;5041122;28;20041;-69
2021/12/01 00:25:39;;;;;;;26.42;17.88;;;9.60;99.90;;;;;;5056383;28;20053;-70
2021/12/01 00:28:05;;;;;;;30.83;18.83;;;9.60;99.90;;;;;;5048992;28;20053;-69
2021/12/01 00:30:30;;;;;;;33.38;18.70;;;9.60;99.90;;;;;;5039598;28;20041;-70
2021/12/01 00:32:56;;;;;;;28.58;17.15;;;9.60;99.90;;;;;;5042331;28;20058;-68
2021/12/01 00:35:22;;;;;;;29.10;18.67;;;9.60;99.90;;;;;;5039178;28;20072;-69
2021/12/01 00:37:48;;;;;;;24.80;17.33;;;9.60;99.90;;;;;;5038470;28;20380;-70
2021/12/01 00:40:14;;;;;;;27.58;17.95;;;9.60;99.90;;;;;;5044798;28;20063;-70
2021/12/01 00:42:41;;;;;;;27.48;17.73;;;9.60;99.90;;;;;;5039502;28;20056;-69
2021/12/01 00:45:19;;;;;;;31.17;16.88;;;9.60;99.90;;;;;;5037499;28;20052;-70
2021/12/01 00:47:50;;;;;;;27.23;16.83;;;9.60;99.90;;;;;;5038129;28;20041;-70
2021/12/01 00:50:23;;;;;;;25.48;15.77;;;9.60;99.90;;;;;;5042302;28;20105;-71
2021/12/01 00:52:51;;;;;;;27.13;16.58;;;9.60;99.90;;;;;;5044657;28;21823;-68
2021/12/01 00:55:17;;;;;;;27.42;15.20;;;9.70;99.90;;;;;;5044548;28;20041;-69
2021/12/01 00:57:43;;;;;;;26.42;15.65;;;9.70;99.90;;;;;;5038102;28;20380;-70
2021/12/01 01:00:10;;;;;;;26.88;15.35;;;9.70;99.90;;;;;;5040570;28;20033;-70
2021/12/01 01:02:36;;;;;;;28.27;13.77;;;9.70;99.90;;;;;;5038654;28;20676;-71
2021/12/01 01:05:03;;;;;;;21.27;13.10;;;9.70;99.90;;;;;;5036785;28;20431;-71
2021/12/01 01:07:28;;;;;;;24.63;14.32;;;9.70;99.90;;;;;;5036981;28;20088;-71
2021/12/01 01:09:54;;;;;;;22.55;12.85;;;9.70;99.90;;;;;;5039840;28;20127;-71
2021/12/01 01:18:08;;;;;;;22.40;11.32;;;9.70;99.90;;;;;;5038561;28;20064;-70
2021/12/01 01:20:35;;;;;;;17.83;10.47;;;9.70;99.90;;;;;;5040431;28;20116;-71
2021/12/01 01:23:01;;;;;;;17.58;10.70;;;9.70;99.90;;;;;;5038758;28;20457;-69
2021/12/01 01:25:27;;;;;;;15.57;9.35;;;9.70;99.90;;;;;;5027639;28;20078;-70
2021/12/01 01:27:53;;;;;;;15.38;9.20;;;9.70;99.90;;;;;;5042438;28;20508;-70
2021/12/01 01:30:19;;;;;;;19.33;9.55;;;9.70;99.90;;;;;;5045934;28;20056;-72
2021/12/01 01:32:44;;;;;;;15.85;9.00;;;9.80;99.90;;;;;;5040580;28;20153;-72
2021/12/01 01:35:10;;;;;;;15.57;9.18;;;9.80;99.90;;;;;;5052098;28;20041;-72
2021/12/01 01:37:36;;;;;;;14.02;9.10;;;9.80;99.90;;;;;;5052654;28;20040;-70
2021/12/01 01:40:02;;;;;;;15.02;8.73;;;9.80;99.90;;;;;;5047122;28;20100;-70
2021/12/01 01:42:27;;;;;;;14.52;9.05;;;9.80;99.90;;;;;;5045857;28;20060;-71
2021/12/01 01:44:53;;;;;;;14.63;8.85;;;9.80;99.90;;;;;;5045361;28;20433;-72
2021/12/01 01:47:20;;;;;;;15.55;9.00;;;9.80;99.90;;;;;;5044061;28;20468;-71
2021/12/01 01:49:55;;;;;;;13.65;8.90;;;9.80;99.90;;;;;;5046590;28;20148;-71
2021/12/01 01:52:20;;;;;;;13.68;9.13;;;9.80;99.90;;;;;;5042146;28;20671;-70
2021/12/01 01:54:46;;;;;;;14.27;9.13;;;9.80;99.90;;;;;;5050342;28;20048;-69
2021/12/01 01:57:11;;;;;;;16.50;9.50;;;9.80;99.90;;;;;;5044531;28;20181;-69
2021/12/01 01:59:37;;;;;;;14.90;8.90;;;9.80;99.90;;;;;;5036556;28;20048;-72
2021/12/01 02:02:04;;;;;;;12.88;8.32;;;9.90;99.90;;;;;;5047710;28;20045;-71
2021/12/01 02:04:33;;;;;;;15.27;9.10;;;9.90;99.90;;;;;;5048844;28;20381;-72
2021/12/01 02:07:01;;;;;;;14.05;8.50;;;9.90;99.90;;;;;;5040905;28;20087;-72
2021/12/01 02:09:27;;;;;;;12.63;8.07;;;9.90;99.90;;;;;;5043406;28;20057;-70
2021/12/01 02:11:56;;;;;;;13.10;8.65;;;9.90;99.90;;;;;;5045870;28;20391;-70
2021/12/01 02:14:22;;;;;;;13.07;8.30;;;9.90;99.90;;;;;;5046958;28;20045;-70
2021/12/01 02:17:11;;;;;;;14.95;9.27;;;9.90;99.90;;;;;;5033873;28;20163;-72
2021/12/01 02:19:38;;;;;;;16.45;9.38;;;9.90;99.90;;;;;;5018199;28;20136;-70
2021/12/01 02:22:04;;;;;;;16.08;9.48;;;9.90;99.90;;;;;;5044971;28;20049;-71
2021/12/01 02:24:30;;;;;;;15.73;9.57;;;10.00;99.90;;;;;;5043234;28;20038;-71
2021/12/01 02:26:55;;;;;;;17.20;10.30;;;9.90;99.90;;;;;;5043800;28;20540;-71
2021/12/01 02:29:26;;;;;;;17.27;9.15;;;9.90;99.90;;;;;;5046037;28;20128;-71
2021/12/01 02:31:53;;;;;;;14.88;8.88;;;9.90;99.90;;;;;;5055939;28;20051;-70
2021/12/01 02:34:22;;;;;;;13.20;8.27;;;9.90;99.90;;;;;;5047412;28;20124;-71
2021/12/01 02:36:57;;;;;;;12.90;7.00;;;9.90;99.90;;;;;;5044050;28;20437;-70
2021/12/01 02:39:24;;;;;;;13.48;7.07;;;9.90;99.90;;;;;;5046901;28;20124;-69
2021/12/01 02:41:56;;;;;;;11.15;6.80;;;10.00;99.90;;;;;;5047042;28;20053;-70
2021/12/01 02:44:23;;;;;;;12.18;5.93;;;10.00;99.90;;;;;;5046000;28;20059;-70
2021/12/01 02:46:49;;;;;;;10.20;5.43;;;10.00;99.90;;;;;;5042623;28;20114;-71
2021/12/01 02:49:19;;;;;;;8.65;4.88;;;9.90;99.90;;;;;;5042023;28;20150;-72
2021/12/01 02:51:45;;;;;;;8.65;4.55;;;10.00;99.90;;;;;;5041402;28;20065;-71
2021/12/01 02:54:11;;;;;;;8.20;4.28;;;10.00;99.90;;;;;;5039996;28;20041;-72
2021/12/01 02:56:37;;;;;;;7.57;4.05;;;10.00;99.90;;;;;;5039423;28;20111;-70
2021/12/01 02:59:04;;;;;;;5.60;3.10;;;10.00;99.90;;;;;;5041501;28;20052;-70
2021/12/01 03:01:31;;;;;;;7.68;2.65;;;10.00;99.90;;;;;;5039453;28;20057;-70
2021/12/01 03:03:59;;;;;;;10.48;2.33;;;10.00;99.90;;;;;;5048727;28;20052;-71
2021/12/01 03:06:26;;;;;;;7.47;2.20;;;10.00;99.90;;;;;;5037665;28;20048;-70
2021/12/01 03:08:52;;;;;;;6.03;1.90;;;10.10;99.90;;;;;;5044021;28;20143;-69
2021/12/01 03:11:18;;;;;;;9.50;2.20;;;10.10;99.90;;;;;;5040448;28;20124;-70
2021/12/01 03:13:44;;;;;;;9.38;1.88;;;10.10;99.90;;;;;;5044184;28;20159;-72
2021/12/01 03:16:10;;;;;;;6.82;2.17;;;10.10;99.90;;;;;;5040746;28;20037;-71
2021/12/01 03:18:35;;;;;;;8.05;2.38;;;10.10;99.90;;;;;;5040448;28;20044;-71
2021/12/01 03:21:01;;;;;;;5.15;1.90;;;10.10;99.90;;;;;;5054836;28;20484;-71
2021/12/01 03:23:27;;;;;;;6.68;1.80;;;10.10;99.90;;;;;;5041856;28;20053;-71
2021/12/01 03:25:53;;;;;;;6.57;2.03;;;10.10;99.90;;;;;;5043840;28;20067;-71
2021/12/01 03:28:20;;;;;;;6.13;1.98;;;10.10;99.90;;;;;;5043072;28;20056;-72
2021/12/01 03:30:47;;;;;;;3.83;1.70;;;10.10;99.90;;;;;;5046831;28;20047;-71
2021/12/01 03:33:17;;;;;;;4.13;1.90;;;10.10;99.90;;;;;;5043182;28;20123;-70
2021/12/01 03:35:45;;;;;;;5.22;1.90;;;10.10;99.90;;;;;;5037648;28;20057;-71
2021/12/01 03:38:12;;;;;;;5.05;2.20;;;10.10;99.90;;;;;;5038000;28;20064;-71
2021/12/01 03:40:38;;;;;;;8.05;2.70;;;10.10;99.90;;;;;;5039820;28;20059;-71
2021/12/01 03:43:04;;;;;;;7.25;2.70;;;10.10;99.90;;;;;;5042763;28;20053;-72
2021/12/01 03:45:29;;;;;;;7.68;2.75;;;10.10;99.90;;;;;;5039952;28;20464;-69
2021/12/01 03:47:56;;;;;;;5.43;2.45;;;10.10;99.90;;;;;;5045293;28;20144;-71
2021/12/01 03:50:21;;;;;;;5.85;2.65;;;10.10;99.90;;;;;;5041394;28;20404;-72
2021/12/01 03:52:47;;;;;;;5.82;2.80;;;10.10;99.90;;;;;;5037177;28;20049;-70
2021/12/01 03:55:13;;;;;;;5.70;2.65;;;10.10;99.90;;;;;;5036123;28;20565;-69
2021/12/01 03:57:39;;;;;;;6.10;2.85;;;10.10;99.90;;;;;;5039879;28;20044;-70
2021/12/01 04:00:08;;;;;;;7.53;2.88;;;10.10;99.90;;;;;;5044074;28;20040;-70
2021/12/01 04:02:34;;;;;;;6.65;2.97;;;10.00;99.90;;;;;;5040053;28;20049;-69
2021/12/01 04:05:00;;;;;;;6.25;3.28;;;10.00;99.90;;;;;;5042863;28;20033;-70
2021/12/01 04:07:25;;;;;;;6.55;2.97;;;10.00;99.90;;;;;;5041012;28;20914;-69
2021/12/01 04:09:51;;;;;;;6.68;3.20;;;10.00;99.90;;;;;;5040084;28;20037;-70
2021/12/01 04:12:17;;;;;;;4.95;3.08;;;9.90;99.90;;;;;;5049150;28;20068;-70
2021/12/01 04:14:43;;;;;;;5.53;2.70;;;9.90;99.90;;;;;;5040843;28;20396;-70
2021/12/01 04:17:08;;;;;;;6.07;2.63;;;9.90;99.90;;;;;;5040123;28;20087;-69
2021/12/01 04:19:34;;;;;;;5.65;2.70;;;9.90;99.90;;;;;;5045433;28;20146;-71
2021/12/01 04:22:00;;;;;;;5.07;2.40;;;9.90;99.90;;;;;;5042141;28;20341;-71
2021/12/01 04:24:25;;;;;;;4.97;2.42;;;9.90;99.90;;;;;;5039725;28;20675;-71
2021/12/01 04:26:51;;;;;;;5.07;2.72;;;9.90;99.90;;;;;;5040657;28;20124;-71
2021/12/01 04:29:17;;;;;;;4.30;2.40;;;9.90;99.90;;;;;;5020001;28;20042;-71
2021/12/01 04:31:43;;;;;;;4.00;2.10;;;9.90;99.90;;;;;;5043744;28;20103;-71
2021/12/01 04:34:09;;;;;;;4.38;2.47;;;9.90;99.90;;;;;;5042473;28;20058;-70
2021/12/01 04:36:41;;;;;;;4.97;2.55;;;9.80;99.90;;;;;;5033854;28;20668;-71
2021/12/01 04:39:11;;;;;;;6.05;2.40;;;9.90;99.90;;;;;;5038052;28;20098;-71
2021/12/01 04:41:47;;;;;;;6.40;2.40;;;9.80;99.90;;;;;;5043695;28;20049;-72
2021/12/01 04:44:14;;;;;;;4.45;2.47;;;9.80;99.90;;;;;;5045463;28;20408;-71
2021/12/01 04:46:44;;;;;;;4.45;2.35;;;9.80;99.90;;;;;;5047590;28;20060;-71
2021/12/01 04:49:11;;;;;;;4.63;2.30;;;9.80;99.90;;;;;;5046404;28;20040;-70
2021/12/01 04:51:40;;;;;;;4.40;2.30;;;9.80;99.90;;;;;;5041435;28;20183;-72
2021/12/01 04:54:05;;;;;;;5.57;2.63;;;9.80;99.90;;;;;;5038867;28;20337;-72
2021/12/01 04:56:31;;;;;;;4.10;2.30;;;9.80;99.90;;;;;;5052476;28;20045;-71
2021/12/01 04:58:57;;;;;;;5.30;2.70;;;9.80;99.90;;;;;;5037628;28;20056;-72
2021/12/01 05:01:23;;;;;;;4.80;2.45;;;9.70;99.90;;;;;;5040371;28;22056;-69
2021/12/01 05:03:48;;;;;;;5.85;2.70;;;9.70;99.90;;;;;;5039193;28;20128;-71
2021/12/01 05:06:16;;;;;;;4.88;2.55;;;9.70;99.90;;;;;;5041356;28;20104;-71
2021/12/01 05:08:42;;;;;;;4.43;2.80;;;9.70;99.90;;;;;;5038322;28;20044;-70
2021/12/01 05:11:07;;;;;;;4.00;2.58;;;9.70;99.90;;;;;;5047393;28;20439;-70
2021/12/01 05:13:33;;;;;;;4.85;2.90;;;9.70;99.90;;;;;;5040560;28;20041;-72
2021/12/01 05:15:59;;;;;;;4.53;2.80;;;9.60;99.90;;;;;;5038139;28;20504;-72
2021/12/01 05:18:24;;;;;;;4.13;2.85;;;9.60;99.90;;;;;;5040317;28;20087;-72
2021/12/01 05:20:50;;;;;;;4.90;3.13;;;9.60;99.90;;;;;;5036521;28;20368;-72
2021/12/01 05:23:15;;;;;;;4.78;3.20;;;9.60;99.90;;;;;;5034398;28;20033;-70
2021/12/01 05:25:45;;;;;;;4.85;3.00;;;9.60;99.90;;;;;;5038620;28;20431;-71
2021/12/01 05:28:11;;;;;;;4.80;3.15;;;9.60;99.90;;;;;;5038765;28;20514;-72
2021/12/01 05:30:37;;;;;;;4.60;3.05;;;9.60;99.90;;;;;;5039928;28;20057;-70
2021/12/01 05:33:08;;;;;;;5.32;3.15;;;9.60;99.90;;;;;;5040597;28;20068;-71
2021/12/01 05:35:35;;;;;;;5.53;3.38;;;9.60;99.90;;;;;;5035354;28;20352;-72
2021/12/01 05:38:03;;;;;;;5.10;3.55;;;9.50;99.90;;;;;;5037099;28;20380;-73
2021/12/01 05:40:28;;;;;;;4.80;2.90;;;9.50;99.90;;;;;;5045854;28;20134;-72
2021/12/01 05:42:54;;;;;;;5.43;3.45;;;9.50;99.90;;;;;;5045454;28;20164;-72
2021/12/01 05:45:19;;;;;;;5.90;3.70;;;9.50;99.90;;;;;;5038312;28;20041;-72
2021/12/01 05:47:45;;;;;;;5.30;3.60;;;9.50;99.90;;;;;;5031217;28;20076;-68
2021/12/01 05:50:11;;;;;;;8.60;5.43;;;9.40;99.90;;;;;;5033715;28;20170;-70
2021/12/01 05:52:37;;;;;;;8.32;5.03;;;9.50;99.90;;;;;;5032102;28;20188;-70
2021/12/01 05:55:04;;;;;;;14.23;7.00;;;9.40;99.90;;;;;;5031920;28;20219;-70
2021/12/01 05:57:30;;;;;;;28.73;14.05;;;9.40;99.90;;;;;;5033600;28;20048;-70
2021/12/01 05:59:56;;;;;;;7.22;4.63;;;9.40;99.90;;;;;;5036502;28;20049;-70
2021/12/01 06:02:21;;;;;;;9.35;5.25;;;9.40;99.90;;;;;;5036530;28;20155;-70
2021/12/01 06:04:48;;;;;;;7.57;3.80;;;9.40;99.90;;;;;;5035703;28;20338;-71
2021/12/01 06:07:14;;;;;;;7.65;3.95;;;9.40;99.90;;;;;;5045917;28;20136;-69
2021/12/01 06:09:41;;;;;;;6.40;3.33;;;9.40;99.90;;;;;;5038362;28;20049;-70
2021/12/01 06:12:07;;;;;;;8.07;3.60;;;9.40;99.90;;;;;;5043307;28;20044;-69
2021/12/01 06:14:35;;;;;;;6.80;3.40;;;9.30;99.90;;;;;;5044751;28;20187;-69
2021/12/01 06:17:00;;;;;;;7.43;2.95;;;9.40;99.90;;;;;;5041137;28;20087;-69
2021/12/01 06:19:26;;;;;;;6.65;3.20;;;9.30;99.90;;;;;;5046011;28;20037;-70
2021/12/01 06:21:52;;;;;;;8.55;4.07;;;9.30;99.90;;;;;;5036846;28;20444;-70
2021/12/01 06:24:17;;;;;;;9.77;4.85;;;9.30;99.90;;;;;;5035460;28;20045;-69
2021/12/01 06:26:43;;;;;;;7.93;3.92;;;9.30;99.90;;;;;;5034464;28;20049;-73
2021/12/01 06:29:08;;;;;;;8.30;4.13;;;9.30;99.90;;;;;;5039145;28;20041;-69
2021/12/01 06:31:40;;;;;;;5.40;2.47;;;9.30;99.90;;;;;;5041151;28;20064;-69
2021/12/01 06:34:05;;;;;;;6.30;3.30;;;9.20;99.90;;;;;;5041603;28;20075;-71
2021/12/01 06:36:31;;;;;;;6.70;3.60;;;9.30;99.90;;;;;;5034992;28;20429;-70
2021/12/01 06:38:57;;;;;;;6.13;3.50;;;9.20;99.90;;;;;;5044152;28;20349;-67
2021/12/01 06:41:22;;;;;;;7.25;3.90;;;9.20;99.90;;;;;;5046721;28;20049;-66
2021/12/01 06:43:48;;;;;;;5.85;2.95;;;9.20;99.90;;;;;;5046470;28;20034;-74
2021/12/01 06:46:21;;;;;;;6.68;3.80;;;9.20;99.90;;;;;;5046729;28;21375;-72
2021/12/01 06:48:52;;;;;;;6.50;4.00;;;9.10;99.90;;;;;;5033296;28;20087;-72
2021/12/01 06:51:18;;;;;;;4.63;2.70;;;9.10;99.90;;;;;;5034370;28;20060;-74
2021/12/01 06:53:44;;;;;;;5.22;2.72;;;9.10;99.90;;;;;;5046782;28;20053;-72
2021/12/01 06:56:10;;;;;;;5.03;2.88;;;9.10;99.90;;;;;;5040870;28;20057;-73
2021/12/01 06:58:36;;;;;;;4.32;2.50;;;9.10;99.90;;;;;;5033115;28;21779;-75
2021/12/01 07:01:05;;;;;;;4.60;2.63;;;9.10;99.90;;;;;;5050100;28;20039;-73
2021/12/01 07:03:51;;;;;;;5.80;3.25;;;9.10;99.90;;;;;;5042362;28;20152;-74
2021/12/01 07:06:17;;;;;;;4.65;2.60;;;9.10;99.90;;;;;;5032334;28;20110;-71
2021/12/01 07:08:42;;;;;;;5.55;3.00;;;9.10;99.90;;;;;;5035253;28;20041;-72
2021/12/01 07:11:08;;;;;;;5.30;3.13;;;9.10;99.90;;;;;;5049723;28;20067;-69
2021/12/01 07:13:34;;;;;;;4.90;3.10;;;9.10;99.90;;;;;;5039930;28;20342;-72
2021/12/01 07:16:00;;;;;;;4.68;2.95;;;9.10;99.90;;;;;;5040942;28;20048;-71
2021/12/01 07:18:26;;;;;;;5.00;3.30;;;9.10;99.90;;;;;;5040228;28;20156;-72
2021/12/01 07:20:52;;;;;;;4.65;3.10;;;9.10;99.90;;;;;;5039957;28;20472;-68
2021/12/01 07:23:18;;;;;;;5.45;3.22;;;9.10;99.90;;;;;;5031450;28;20124;-70
2021/12/01 07:25:43;;;;;;;6.95;4.05;;;9.20;99.90;;;;;;5042161;28;20045;-71
2021/12/01 07:28:09;;;;;;;5.78;3.67;;;9.10;99.90;;;;;;5048948;28;20041;-70
2021/12/01 07:30:37;;;;;;;6.25;3.83;;;9.20;99.90;;;;;;5044164;28;20495;-73
2021/12/01 07:33:03;;;;;;;6.32;3.85;;;9.20;99.90;;;;;;5041831;28;20071;-71
2021/12/01 07:35:29;;;;;;;6.68;3.80;;;9.20;99.90;;;;;;5045292;28;20464;-71
2021/12/01 07:37:54;;;;;;;5.78;3.47;;;9.20;99.90;;;;;;5046687;28;20589;-70
2021/12/01 07:40:20;;;;;;;5.30;3.45;;;9.20;99.90;;;;;;5044815;28;20052;-70
2021/12/01 07:42:46;;;;;;;5.53;3.30;;;9.20;99.90;;;;;;5051853;28;20381;-69
2021/12/01 07:45:11;;;;;;;4.90;3.13;;;9.20;99.90;;;;;;5046912;28;20421;-69
2021/12/01 07:47:38;;;;;;;5.40;3.50;;;9.20;99.90;;;;;;5049297;28;20099;-71
2021/12/01 07:50:05;;;;;;;5.63;3.42;;;9.30;99.90;;;;;;5038114;28;20544;-73
2021/12/01 07:52:32;;;;;;;6.70;3.58;;;9.30;99.90;;;;;;5049611;28;20069;-69
2021/12/01 07:54:58;;;;;;;5.75;3.50;;;9.30;99.90;;;;;;5036668;28;20089;-70
2021/12/01 07:57:24;;;;;;;6.63;3.50;;;9.30;99.90;;;;;;5041956;28;20080;-69
2021/12/01 07:59:49;;;;;;;6.28;3.58;;;9.30;99.90;;;;;;5047587;28;20088;-70
2021/12/01 08:02:15;;;;;;;6.55;3.50;;;9.40;99.90;;;;;;5044640;28;20373;-70
2021/12/01 08:04:41;;;;;;;6.40;4.50;;;9.40;99.90;;;;;;5049973;28;20053;-70
2021/12/01 08:07:06;;;;;;;7.65;4.40;;;9.40;99.90;;;;;;5048054;28;20515;-69
2021/12/01 08:09:32;;;;;;;7.32;4.40;;;9.40;99.90;;;;;;5047304;28;20045;-69
2021/12/01 08:11:57;;;;;;;7.88;4.28;;;9.40;99.90;;;;;;5049035;28;20049;-70
2021/12/01 08:14:24;;;;;;;7.20;3.97;;;9.40;99.90;;;;;;5031607;28;20152;-69
2021/12/01 08:16:50;;;;;;;4.80;3.10;;;9.40;99.90;;;;;;5049477;28;20060;-71
2021/12/01 08:19:16;;;;;;;6.43;4.05;;;9.50;99.90;;;;;;5049385;28;20563;-72
2021/12/01 08:21:46;;;;;;;6.13;3.45;;;9.50;99.90;;;;;;5047564;28;20127;-72
2021/12/01 08:24:12;;;;;;;6.15;3.58;;;9.50;99.90;;;;;;5046315;28;20045;-72
2021/12/01 08:26:40;;;;;;;7.93;3.60;;;9.50;99.90;;;;;;5029026;28;20099;-71
2021/12/01 08:29:06;;;;;;;5.95;3.42;;;9.50;99.90;;;;;;5049206;28;20076;-72
2021/12/01 08:31:31;;;;;;;6.53;4.00;;;9.50;99.90;;;;;;5047422;28;20072;-72
2021/12/01 08:33:57;;;;;;;11.18;3.95;;;9.50;99.90;;;;;;5048173;28;20068;-70
2021/12/01 08:36:23;;;;;;;12.23;4.35;;;9.50;99.90;;;;;;5041697;28;20045;-70
2021/12/01 08:38:48;;;;;;;11.30;5.05;;;9.40;99.90;;;;;;5046653;28;20072;-71
2021/12/01 08:41:14;;;;;;;7.15;3.95;;;9.40;99.90;;;;;;5029618;28;20052;-73
2021/12/01 08:43:40;;;;;;;7.97;2.90;;;9.40;99.90;;;;;;5047723;28;20061;-74
2021/12/01 08:46:07;;;;;;;7.85;2.90;;;9.40;99.90;;;;;;5052014;28;20502;-73
2021/12/01 08:48:32;;;;;;;7.70;3.03;;;9.40;99.90;;;;;;5063555;28;20117;-71
2021/12/01 08:51:01;;;;;;;8.35;2.60;;;9.40;99.90;;;;;;5045774;28;20664;-72
2021/12/01 08:53:28;;;;;;;6.47;2.40;;;9.40;99.90;;;;;;5048438;28;20075;-70
2021/12/01 08:55:54;;;;;;;9.43;2.50;;;9.40;99.90;;;;;;5048206;28;20033;-71
2021/12/01 08:58:19;;;;;;;8.60;2.10;;;9.40;99.90;;;;;;5050149;28;20190;-69
2021/12/01 09:00:46;;;;;;;6.63;1.98;;;9.40;99.90;;;;;;5046438;28;20338;-72
2021/12/01 09:03:13;;;;;;;10.52;1.95;;;9.40;99.90;;;;;;5031802;28;20037;-71
2021/12/01 09:05:40;;;;;;;12.15;2.20;;;9.40;99.90;;;;;;5049004;28;20052;-70
2021/12/01 09:08:06;;;;;;;11.70;2.17;;;9.40;99.90;;;;;;5042400;28;20064;-70
2021/12/01 09:10:32;;;;;;;13.70;1.98;;;9.30;99.90;;;;;;5039861;28;20071;-71
2021/12/01 09:12:59;;;;;;;12.82;2.15;;;9.30;99.90;;;;;;5048438;28;20053;-73
2021/12/01 09:15:24;;;;;;;8.75;1.80;;;9.30;99.90;;;;;;5045326;28;20051;-71
2021/12/01 09:17:50;;;;;;;9.60;1.92;;;9.30;99.90;;;;;;5040001;28;20053;-73
2021/12/01 09:20:16;;;;;;;11.93;2.20;;;9.30;99.90;;;;;;5049123;28;20029;-73
2021/12/01 09:22:41;;;;;;;15.27;2.72;;;9.40;99.90;;;;;;5048827;28;20131;-70
2021/12/01 09:25:07;;;;;;;15.70;2.78;;;9.40;99.90;;;;;;5038849;28;20048;-72
2021/12/01 09:27:33;;;;;;;8.88;2.42;;;9.40;99.90;;;;;;5038304;28;20084;-73
2021/12/01 09:29:59;;;;;;;12.55;2.55;;;9.50;99.90;;;;;;5047079;28;20133;-74
2021/12/01 09:32:24;;;;;;;7.55;1.73;;;9.40;99.90;;;;;;5050323;28;20136;-73
2021/12/01 09:34:50;;;;;;;11.18;2.10;;;9.40;99.90;;;;;;5044144;28;20036;-74
2021/12/01 09:37:16;;;;;;;8.98;1.70;;;9.50;99.90;;;;;;5046479;28;20377;-72
2021/12/01 09:39:42;;;;;;;7.55;1.70;;;9.40;99.90;;;;;;5041742;28;20354;-73
2021/12/01 09:42:09;;;;;;;9.50;1.40;;;9.40;99.90;;;;;;5048474;28;20106;-72
2021/12/01 09:44:36;;;;;;;9.57;1.60;;;9.30;99.90;;;;;;5051586;28;20538;-74
2021/12/01 09:47:01;;;;;;;9.02;1.63;;;9.40;99.90;;;;;;5042558;28;20045;-73
2021/12/01 09:49:27;;;;;;;11.07;1.55;;;9.40;99.90;;;;;;5049883;28;20123;-73
2021/12/01 09:51:53;;;;;;;8.07;1.60;;;9.30;99.90;;;;;;5043742;28;20045;-71
2021/12/01 09:54:18;;;;;;;10.10;1.67;;;9.30;99.90;;;;;;5028154;28;20706;-73
2021/12/01 09:56:44;;;;;;;11.00;1.95;;;9.30;99.90;;;;;;5040312;28;20380;-73
2021/12/01 09:59:10;;;;;;;8.93;1.60;;;9.30;99.90;;;;;;5048904;28;20519;-71
2021/12/01 10:01:35;;;;;;;9.85;1.73;;;9.30;99.90;;;;;;5038213;28;20315;-72
2021/12/01 10:04:01;;;;;;;12.10;2.30;;;9.30;99.90;;;;;;5015067;28;20038;-72
2021/12/01 10:06:27;;;;;;;9.73;1.50;;;9.30;99.90;;;;;;5031046;28;20037;-72
2021/12/01 10:08:56;;;;;;;11.25;2.10;;;9.30;99.90;;;;;;5047148;28;20045;-73
2021/12/01 10:11:28;;;;;;;11.07;1.60;;;9.30;99.90;;;;;;5048002;28;20044;-73
2021/12/01 10:14:06;;;;;;;8.07;1.55;;;9.30;99.90;;;;;;5035113;28;20051;-72
2021/12/01 10:16:35;;;;;;;7.13;1.20;;;9.30;99.90;;;;;;5030847;28;20042;-75
2021/12/01 10:19:04;;;;;;;6.82;1.52;;;9.30;99.90;;;;;;5034696;28;20120;-74
2021/12/01 10:21:45;;;;;;;8.57;1.50;;;9.30;99.90;;;;;;5055625;28;20673;-75
2021/12/01 10:24:18;;;;;;;10.13;1.42;;;9.30;99.90;;;;;;5032552;28;20078;-73
2021/12/01 10:26:56;;;;;;;8.52;1.67;;;9.30;99.90;;;;;;5046298;28;20129;-72
2021/12/01 10:29:31;;;;;;;12.23;2.00;;;9.40;99.90;;;;;;5048470;28;20091;-74
2021/12/01 10:32:12;;;;;;;7.15;1.77;;;9.40;99.90;;;;;;5027911;28;20067;-72
2021/12/01 10:34:41;;;;;;;9.98;1.58;;;9.50;99.90;;;;;;5050602;28;20051;-72
2021/12/01 10:37:30;;;;;;;12.90;2.03;;;9.50;99.90;;;;;;5046499;28;20076;-72
2021/12/01 10:40:15;;;;;;;12.05;1.80;;;9.50;99.90;;;;;;5048357;28;20045;-71
2021/12/01 10:43:09;;;;;;;11.20;1.88;;;9.50;99.90;;;;;;5043432;28;20041;-72
2021/12/01 10:45:45;;;;;;;12.40;2.42;;;9.50;99.90;;;;;;5052194;28;20060;-71
2021/12/01 10:48:25;;;;;;;8.00;1.75;;;9.50;99.90;;;;;;5051475;28;20052;-72
2021/12/01 10:50:51;;;;;;;10.55;1.83;;;9.50;99.90;;;;;;5043588;28;20168;-72
2021/12/01 10:53:19;;;;;;;12.88;1.63;;;9.50;99.90;;;;;;5041580;28;20086;-73
2021/12/01 10:55:54;;;;;;;10.55;2.38;;;9.50;99.90;;;;;;5045326;28;20053;-71
2021/12/01 10:58:20;;;;;;;13.43;2.03;;;9.50;99.90;;;;;;5049935;28;20033;-71
2021/12/01 11:00:49;;;;;;;9.48;2.10;;;9.60;99.90;;;;;;5056594;28;20041;-71
2021/12/01 11:03:17;;;;;;;10.85;2.20;;;9.60;99.90;;;;;;5051535;28;20088;-71
2021/12/01 11:05:48;;;;;;;9.93;2.10;;;9.60;99.90;;;;;;5050925;28;20084;-70
2021/12/01 11:08:16;;;;;;;12.50;2.20;;;9.70;99.90;;;;;;5051814;28;20177;-69
2021/12/01 11:10:45;;;;;;;8.48;2.25;;;9.70;99.90;;;;;;5037535;28;20072;-70
2021/12/01 11:13:12;;;;;;;13.35;2.25;;;9.70;99.90;;;;;;5051771;28;20043;-72
2021/12/01 11:15:40;;;;;;;12.55;2.20;;;9.60;99.90;;;;;;5052320;28;20037;-73
2021/12/01 11:18:08;;;;;;;11.13;2.10;;;9.60;99.90;;;;;;5053234;28;20056;-73
2021/12/01 11:20:39;;;;;;;14.98;2.22;;;9.60;99.90;;;;;;5052251;28;20049;-71
2021/12/01 11:23:13;;;;;;;11.57;2.38;;;9.70;99.90;;;;;;5046451;28;20131;-71
2021/12/01 11:25:40;;;;;;;13.18;2.20;;;9.70;99.90;;;;;;5050834;28;20080;-70
2021/12/01 11:28:13;;;;;;;13.73;2.50;;;9.70;99.90;;;;;;5045786;28;20099;-69
2021/12/01 11:30:41;;;;;;;13.60;2.50;;;9.70;99.90;;;;;;5044968;28;20083;-69
2021/12/01 11:33:10;;;;;;;15.52;2.92;;;9.60;99.90;;;;;;5049066;28;20051;-70
2021/12/01 11:35:37;;;;;;;13.02;2.60;;;9.60;99.90;;;;;;5052540;28;20049;-71
2021/12/01 11:38:02;;;;;;;16.55;2.50;;;9.60;99.90;;;;;;5049515;28;20051;-70
2021/12/01 11:40:30;;;;;;;17.73;3.95;;;9.60;99.90;;;;;;5052196;28;20057;-69
2021/12/01 11:42:57;;;;;;;17.20;3.28;;;9.50;99.90;;;;;;5044991;28;20125;-70
2021/12/01 11:45:23;;;;;;;14.93;2.92;;;9.60;99.90;;;;;;5043929;28;20064;-69
2021/12/01 11:47:49;;;;;;;12.85;2.17;;;9.60;99.90;;;;;;5052335;28;20469;-71
2021/12/01 11:50:20;;;;;;;17.42;2.70;;;9.60;99.90;;;;;;5048958;28;20053;-70
2021/12/01 11:53:22;;;;;;;13.70;2.50;;;9.60;99.90;;;;;;5036596;28;20046;-70
2021/12/01 11:56:05;;;;;;;14.15;2.92;;;9.60;99.90;;;;;;5040706;28;20358;-71
2021/12/01 11:58:50;;;;;;;11.38;3.00;;;9.60;99.90;;;;;;5048643;28;20381;-69
2021/12/01 12:01:22;;;;;;;17.58;3.00;;;9.60;99.90;;;;;;5047609;28;20372;-70
2021/12/01 12:03:53;;;;;;;15.32;2.85;;;9.50;99.90;;;;;;5047865;28;20045;-70
2021/12/01 12:06:27;;;;;;;14.45;2.60;;;9.50;99.90;;;;;;5049366;28;20040;-70
2021/12/01 12:08:56;;;;;;;12.35;2.25;;;9.50;99.90;;;;;;5050015;28;20110;-70
2021/12/01 12:11:43;;;;;;;14.43;2.10;;;9.50;99.90;;;;;;5031767;28;20037;-71
2021/12/01 12:14:29;;;;;;;15.77;2.88;;;9.60;99.90;;;;;;5049329;28;20134;-67
2021/12/01 12:17:08;;;;;;;12.32;2.50;;;9.60;99.90;;;;;;5050067;28;20185;-69
2021/12/01 12:19:46;;;;;;;13.75;2.33;;;9.60;99.90;;;;;;5055309;28;20491;-68
2021/12/01 12:22:18;;;;;;;11.45;2.33;;;9.60;99.90;;;;;;5049569;28;20038;-68
2021/12/01 12:24:51;;;;;;;12.95;2.58;;;9.70;99.90;;;;;;5030612;28;20056;-68
2021/12/01 12:27:30;;;;;;;14.50;2.53;;;9.60;99.90;;;;;;5029540;28;20106;-68
2021/12/01 12:29:57;;;;;;;16.08;2.88;;;9.50;99.90;;;;;;5029980;28;20120;-68
2021/12/01 12:32:24;;;;;;;16.50;3.05;;;9.50;99.90;;;;;;5028123;28;20053;-66
2021/12/01 12:34:52;;;;;;;12.60;2.33;;;9.40;99.90;;;;;;5030295;28;20319;-68
2021/12/01 12:37:23;;;;;;;19.75;3.50;;;9.40;99.90;;;;;;5047211;28;20076;-68
2021/12/01 12:39:51;;;;;;;15.15;2.92;;;9.40;99.90;;;;;;5048478;28;20128;-70
2021/12/01 12:42:22;;;;;;;17.52;2.65;;;9.30;99.90;;;;;;5048965;28;20120;-70
2021/12/01 12:44:50;;;;;;;14.20;2.78;;;9.40;99.90;;;;;;5011781;28;20045;-67
2021/12/01 12:47:22;;;;;;;18.58;3.35;;;9.30;99.90;;;;;;5048572;28;20041;-68
2021/12/01 12:49:55;;;;;;;15.38;2.40;;;9.40;99.90;;;;;;5049555;28;20037;-68
2021/12/01 12:52:27;;;;;;;14.98;2.92;;;9.30;99.90;;;;;;5047328;28;20064;-68
2021/12/01 12:55:19;;;;;;;19.25;3.28;;;9.30;99.90;;;;;;5042944;28;20041;-69
2021/12/01 12:57:59;;;;;;;16.40;2.92;;;9.30;99.90;;;;;;5045406;28;20053;-69
2021/12/01 13:00:37;;;;;;;15.15;3.03;;;9.30;99.90;;;;;;5045939;28;20098;-69